sensor_id;sensor_type;location;lat;lon;timestamp;P1;durP1;ratioP1;P2;durP2;ratioP2
47912;SDS011;33676;51.006;17.180;2024-03-06T00:01:25;35.80;;;26.90;;
47912;SDS011;33676;51.006;17.180;2024-03-06T00:03:53;32.70;;;27.50;;
47912;SDS011;33676;51.006;17.180;2024-03-06T00:06:22;36.80;;;26.70;;
47912;SDS011;33676;51.006;17.180;2024-03-06T00:08:50;36.20;;;29.70;;
47912;SDS011;33676;51.006;17.180;2024-03-06T00:11:19;38.10;;;28.30;;
47912;SDS011;33676;51.006;17.180;2024-03-06T00:13:48;35.50;;;28.00;;
47912;SDS011;33676;51.006;17.180;2024-03-06T00:16:16;32.90;;;27.00;;
47912;SDS011;33676;51.006;17.180;2024-03-06T00:18:47;34.90;;;26.20;;
47912;SDS011;33676;51.006;17.180;2024-03-06T00:21:15;33.10;;;26.80;;
47912;SDS011;33676;51.006;17.180;2024-03-06T00:23:44;35.20;;;27.70;;
47912;SDS011;33676;51.006;17.180;2024-03-06T00:26:14;35.10;;;26.60;;
47912;SDS011;33676;51.006;17.180;2024-03-06T00:28:42;34.50;;;27.60;;
47912;SDS011;33676;51.006;17.180;2024-03-06T00:31:11;38.40;;;29.60;;
47912;SDS011;33676;51.006;17.180;2024-03-06T00:33:41;40.90;;;30.40;;
47912;SDS011;33676;51.006;17.180;2024-03-06T00:36:10;36.50;;;29.40;;
47912;SDS011;33676;51.006;17.180;2024-03-06T00:38:38;35.90;;;28.30;;
47912;SDS011;33676;51.006;17.180;2024-03-06T00:41:07;37.40;;;26.80;;
47912;SDS011;33676;51.006;17.180;2024-03-06T00:43:35;36.30;;;28.70;;
47912;SDS011;33676;51.006;17.180;2024-03-06T00:46:04;39.20;;;29.00;;
47912;SDS011;33676;51.006;17.180;2024-03-06T00:48:32;34.80;;;29.30;;
47912;SDS011;33676;51.006;17.180;2024-03-06T00:51:01;36.20;;;28.10;;
47912;SDS011;33676;51.006;17.180;2024-03-06T00:53:29;34.20;;;27.40;;
47912;SDS011;33676;51.006;17.180;2024-03-06T00:55:58;31.20;;;26.40;;
47912;SDS011;33676;51.006;17.180;2024-03-06T00:58:26;37.00;;;28.70;;
47912;SDS011;33676;51.006;17.180;2024-03-06T01:00:55;39.10;;;29.40;;
47912;SDS011;33676;51.006;17.180;2024-03-06T01:03:24;33.00;;;27.00;;
47912;SDS011;33676;51.006;17.180;2024-03-06T01:05:53;37.00;;;30.00;;
47912;SDS011;33676;51.006;17.180;2024-03-06T01:08:22;37.90;;;28.90;;
47912;SDS011;33676;51.006;17.180;2024-03-06T01:10:53;36.10;;;29.00;;
47912;SDS011;33676;51.006;17.180;2024-03-06T01:13:22;38.60;;;29.60;;
47912;SDS011;33676;51.006;17.180;2024-03-06T01:15:51;35.30;;;28.30;;
47912;SDS011;33676;51.006;17.180;2024-03-06T01:18:20;37.50;;;28.30;;
47912;SDS011;33676;51.006;17.180;2024-03-06T01:20:49;43.20;;;31.10;;
47912;SDS011;33676;51.006;17.180;2024-03-06T01:23:17;38.50;;;29.30;;
47912;SDS011;33676;51.006;17.180;2024-03-06T01:25:46;36.00;;;30.20;;
47912;SDS011;33676;51.006;17.180;2024-03-06T01:28:15;37.30;;;28.50;;
47912;SDS011;33676;51.006;17.180;2024-03-06T01:30:45;36.70;;;30.50;;
47912;SDS011;33676;51.006;17.180;2024-03-06T01:33:13;37.30;;;28.80;;
47912;SDS011;33676;51.006;17.180;2024-03-06T01:35:43;37.60;;;28.50;;
47912;SDS011;33676;51.006;17.180;2024-03-06T01:38:11;36.90;;;29.10;;
47912;SDS011;33676;51.006;17.180;2024-03-06T01:40:44;39.00;;;29.70;;
47912;SDS011;33676;51.006;17.180;2024-03-06T01:43:21;37.00;;;31.40;;
47912;SDS011;33676;51.006;17.180;2024-03-06T01:45:51;39.40;;;30.40;;
47912;SDS011;33676;51.006;17.180;2024-03-06T01:48:24;42.60;;;32.40;;
47912;SDS011;33676;51.006;17.180;2024-03-06T01:50:56;45.40;;;33.60;;
47912;SDS011;33676;51.006;17.180;2024-03-06T01:53:29;46.80;;;33.90;;
47912;SDS011;33676;51.006;17.180;2024-03-06T01:55:59;41.60;;;30.10;;
47912;SDS011;33676;51.006;17.180;2024-03-06T01:58:29;44.50;;;33.60;;
47912;SDS011;33676;51.006;17.180;2024-03-06T02:00:59;41.50;;;32.70;;
47912;SDS011;33676;51.006;17.180;2024-03-06T02:03:27;40.50;;;31.90;;
47912;SDS011;33676;51.006;17.180;2024-03-06T02:05:59;39.80;;;31.20;;
47912;SDS011;33676;51.006;17.180;2024-03-06T02:08:30;41.50;;;31.20;;
47912;SDS011;33676;51.006;17.180;2024-03-06T02:11:00;45.20;;;32.30;;
47912;SDS011;33676;51.006;17.180;2024-03-06T02:13:32;44.60;;;34.40;;
47912;SDS011;33676;51.006;17.180;2024-03-06T02:16:01;42.10;;;33.20;;
47912;SDS011;33676;51.006;17.180;2024-03-06T02:18:30;49.60;;;33.90;;
47912;SDS011;33676;51.006;17.180;2024-03-06T02:20:59;47.40;;;36.40;;
47912;SDS011;33676;51.006;17.180;2024-03-06T02:23:28;43.80;;;33.10;;
47912;SDS011;33676;51.006;17.180;2024-03-06T02:25:56;47.60;;;36.20;;
47912;SDS011;33676;51.006;17.180;2024-03-06T02:28:25;42.40;;;34.40;;
47912;SDS011;33676;51.006;17.180;2024-03-06T02:30:53;48.40;;;35.70;;
47912;SDS011;33676;51.006;17.180;2024-03-06T02:33:22;50.60;;;37.80;;
47912;SDS011;33676;51.006;17.180;2024-03-06T02:35:51;49.70;;;39.10;;
47912;SDS011;33676;51.006;17.180;2024-03-06T02:38:19;46.80;;;35.20;;
47912;SDS011;33676;51.006;17.180;2024-03-06T02:40:48;51.00;;;36.50;;
47912;SDS011;33676;51.006;17.180;2024-03-06T02:43:16;52.70;;;37.60;;
47912;SDS011;33676;51.006;17.180;2024-03-06T02:45:45;46.30;;;34.10;;
47912;SDS011;33676;51.006;17.180;2024-03-06T02:48:13;47.70;;;35.40;;
47912;SDS011;33676;51.006;17.180;2024-03-06T02:50:42;44.90;;;34.50;;
47912;SDS011;33676;51.006;17.180;2024-03-06T02:53:12;44.60;;;34.30;;
47912;SDS011;33676;51.006;17.180;2024-03-06T02:55:41;47.50;;;36.10;;
47912;SDS011;33676;51.006;17.180;2024-03-06T02:58:10;48.00;;;36.10;;
47912;SDS011;33676;51.006;17.180;2024-03-06T03:00:40;48.50;;;36.10;;
47912;SDS011;33676;51.006;17.180;2024-03-06T03:03:11;44.30;;;35.30;;
47912;SDS011;33676;51.006;17.180;2024-03-06T03:05:43;47.20;;;35.30;;
47912;SDS011;33676;51.006;17.180;2024-03-06T03:08:12;45.40;;;34.40;;
47912;SDS011;33676;51.006;17.180;2024-03-06T03:10:41;45.90;;;34.70;;
47912;SDS011;33676;51.006;17.180;2024-03-06T03:13:09;48.40;;;34.90;;
47912;SDS011;33676;51.006;17.180;2024-03-06T03:15:38;43.50;;;33.50;;
47912;SDS011;33676;51.006;17.180;2024-03-06T03:18:09;43.40;;;32.70;;
47912;SDS011;33676;51.006;17.180;2024-03-06T03:20:38;46.60;;;35.30;;
47912;SDS011;33676;51.006;17.180;2024-03-06T03:23:07;45.00;;;35.80;;
47912;SDS011;33676;51.006;17.180;2024-03-06T03:25:40;43.10;;;33.10;;
47912;SDS011;33676;51.006;17.180;2024-03-06T03:28:09;48.50;;;33.70;;
47912;SDS011;33676;51.006;17.180;2024-03-06T03:30:38;44.20;;;32.40;;
47912;SDS011;33676;51.006;17.180;2024-03-06T03:33:07;46.50;;;33.80;;
47912;SDS011;33676;51.006;17.180;2024-03-06T03:35:36;42.50;;;32.70;;
47912;SDS011;33676;51.006;17.180;2024-03-06T03:38:04;44.70;;;33.30;;
47912;SDS011;33676;51.006;17.180;2024-03-06T03:40:33;42.70;;;32.60;;
47912;SDS011;33676;51.006;17.180;2024-03-06T03:43:03;45.30;;;33.70;;
47912;SDS011;33676;51.006;17.180;2024-03-06T03:45:35;41.40;;;32.50;;
47912;SDS011;33676;51.006;17.180;2024-03-06T03:48:05;41.00;;;31.90;;
47912;SDS011;33676;51.006;17.180;2024-03-06T03:50:34;40.80;;;31.70;;
47912;SDS011;33676;51.006;17.180;2024-03-06T03:53:02;41.80;;;32.30;;
47912;SDS011;33676;51.006;17.180;2024-03-06T03:55:31;44.40;;;33.10;;
47912;SDS011;33676;51.006;17.180;2024-03-06T03:58:01;46.00;;;32.70;;
47912;SDS011;33676;51.006;17.180;2024-03-06T04:00:30;40.80;;;31.70;;
47912;SDS011;33676;51.006;17.180;2024-03-06T04:02:59;40.20;;;31.40;;
47912;SDS011;33676;51.006;17.180;2024-03-06T04:05:31;44.60;;;32.00;;
47912;SDS011;33676;51.006;17.180;2024-03-06T04:08:00;43.30;;;33.50;;
47912;SDS011;33676;51.006;17.180;2024-03-06T04:10:29;42.70;;;32.70;;
47912;SDS011;33676;51.006;17.180;2024-03-06T04:12:57;44.40;;;35.40;;
47912;SDS011;33676;51.006;17.180;2024-03-06T04:15:29;48.00;;;33.10;;
47912;SDS011;33676;51.006;17.180;2024-03-06T04:17:57;41.60;;;33.30;;
47912;SDS011;33676;51.006;17.180;2024-03-06T04:20:26;42.30;;;33.60;;
47912;SDS011;33676;51.006;17.180;2024-03-06T04:22:55;42.20;;;32.60;;
47912;SDS011;33676;51.006;17.180;2024-03-06T04:25:24;41.70;;;33.40;;
47912;SDS011;33676;51.006;17.180;2024-03-06T04:27:54;47.80;;;35.00;;
47912;SDS011;33676;51.006;17.180;2024-03-06T04:30:23;48.70;;;35.00;;
47912;SDS011;33676;51.006;17.180;2024-03-06T04:32:52;45.30;;;35.20;;
47912;SDS011;33676;51.006;17.180;2024-03-06T04:35:20;44.20;;;34.00;;
47912;SDS011;33676;51.006;17.180;2024-03-06T04:37:50;46.20;;;34.40;;
47912;SDS011;33676;51.006;17.180;2024-03-06T04:44:08;47.10;;;34.40;;
47912;SDS011;33676;51.006;17.180;2024-03-06T04:46:39;45.70;;;34.00;;
47912;SDS011;33676;51.006;17.180;2024-03-06T04:49:07;45.00;;;34.00;;
47912;SDS011;33676;51.006;17.180;2024-03-06T04:51:36;47.30;;;34.50;;
47912;SDS011;33676;51.006;17.180;2024-03-06T04:54:05;49.30;;;36.40;;
47912;SDS011;33676;51.006;17.180;2024-03-06T04:56:34;49.80;;;35.40;;
47912;SDS011;33676;51.006;17.180;2024-03-06T04:59:04;47.70;;;36.40;;
47912;SDS011;33676;51.006;17.180;2024-03-06T05:01:33;50.40;;;36.60;;
47912;SDS011;33676;51.006;17.180;2024-03-06T05:04:04;52.90;;;37.60;;
47912;SDS011;33676;51.006;17.180;2024-03-06T05:06:52;50.90;;;35.60;;
47912;SDS011;33676;51.006;17.180;2024-03-06T05:09:38;47.30;;;37.00;;
47912;SDS011;33676;51.006;17.180;2024-03-06T05:12:35;47.90;;;35.80;;
47912;SDS011;33676;51.006;17.180;2024-03-06T05:15:21;48.20;;;36.50;;
47912;SDS011;33676;51.006;17.180;2024-03-06T05:18:08;49.10;;;37.90;;
47912;SDS011;33676;51.006;17.180;2024-03-06T05:20:55;47.90;;;36.70;;
47912;SDS011;33676;51.006;17.180;2024-03-06T05:26:27;51.10;;;38.60;;
47912;SDS011;33676;51.006;17.180;2024-03-06T05:29:13;54.70;;;39.00;;
47912;SDS011;33676;51.006;17.180;2024-03-06T05:31:59;48.50;;;39.80;;
47912;SDS011;33676;51.006;17.180;2024-03-06T05:34:45;52.60;;;37.80;;
47912;SDS011;33676;51.006;17.180;2024-03-06T05:37:31;50.10;;;35.80;;
47912;SDS011;33676;51.006;17.180;2024-03-06T05:40:17;52.20;;;36.80;;
47912;SDS011;33676;51.006;17.180;2024-03-06T05:43:04;53.10;;;38.70;;
47912;SDS011;33676;51.006;17.180;2024-03-06T05:45:51;47.40;;;35.70;;
47912;SDS011;33676;51.006;17.180;2024-03-06T05:48:41;47.70;;;35.90;;
47912;SDS011;33676;51.006;17.180;2024-03-06T05:52:01;51.70;;;35.70;;
47912;SDS011;33676;51.006;17.180;2024-03-06T05:55:22;51.70;;;39.00;;
47912;SDS011;33676;51.006;17.180;2024-03-06T05:58:10;61.70;;;43.20;;
47912;SDS011;33676;51.006;17.180;2024-03-06T06:00:45;61.60;;;42.30;;
47912;SDS011;33676;51.006;17.180;2024-03-06T06:03:15;55.50;;;39.80;;
47912;SDS011;33676;51.006;17.180;2024-03-06T06:05:45;56.80;;;40.90;;
47912;SDS011;33676;51.006;17.180;2024-03-06T06:08:16;54.70;;;39.90;;
47912;SDS011;33676;51.006;17.180;2024-03-06T06:10:58;55.40;;;40.00;;
47912;SDS011;33676;51.006;17.180;2024-03-06T06:13:53;52.60;;;36.60;;
47912;SDS011;33676;51.006;17.180;2024-03-06T06:16:22;50.30;;;37.60;;
47912;SDS011;33676;51.006;17.180;2024-03-06T06:18:51;59.40;;;39.50;;
47912;SDS011;33676;51.006;17.180;2024-03-06T06:21:52;61.70;;;42.60;;
47912;SDS011;33676;51.006;17.180;2024-03-06T06:24:40;56.80;;;40.10;;
47912;SDS011;33676;51.006;17.180;2024-03-06T06:27:31;53.50;;;38.10;;
47912;SDS011;33676;51.006;17.180;2024-03-06T06:30:02;53.40;;;39.30;;
47912;SDS011;33676;51.006;17.180;2024-03-06T06:33:09;56.10;;;42.10;;
47912;SDS011;33676;51.006;17.180;2024-03-06T06:35:42;55.50;;;39.80;;
47912;SDS011;33676;51.006;17.180;2024-03-06T06:38:11;64.40;;;46.70;;
47912;SDS011;33676;51.006;17.180;2024-03-06T06:40:40;54.60;;;40.80;;
47912;SDS011;33676;51.006;17.180;2024-03-06T06:43:29;47.30;;;37.00;;
47912;SDS011;33676;51.006;17.180;2024-03-06T06:45:59;49.90;;;37.40;;
47912;SDS011;33676;51.006;17.180;2024-03-06T06:48:33;53.50;;;38.10;;
47912;SDS011;33676;51.006;17.180;2024-03-06T06:51:02;50.30;;;38.50;;
47912;SDS011;33676;51.006;17.180;2024-03-06T06:53:32;58.80;;;41.60;;
47912;SDS011;33676;51.006;17.180;2024-03-06T06:56:03;58.20;;;39.10;;
47912;SDS011;33676;51.006;17.180;2024-03-06T06:58:39;52.50;;;39.30;;
47912;SDS011;33676;51.006;17.180;2024-03-06T07:01:11;51.20;;;37.40;;
47912;SDS011;33676;51.006;17.180;2024-03-06T07:03:40;49.50;;;36.50;;
47912;SDS011;33676;51.006;17.180;2024-03-06T07:06:08;54.40;;;39.10;;
47912;SDS011;33676;51.006;17.180;2024-03-06T07:08:37;48.40;;;36.50;;
47912;SDS011;33676;51.006;17.180;2024-03-06T07:11:05;52.40;;;36.00;;
47912;SDS011;33676;51.006;17.180;2024-03-06T07:13:34;53.30;;;37.90;;
47912;SDS011;33676;51.006;17.180;2024-03-06T07:16:03;53.20;;;39.50;;
47912;SDS011;33676;51.006;17.180;2024-03-06T07:18:32;56.90;;;37.40;;
47912;SDS011;33676;51.006;17.180;2024-03-06T07:21:01;53.10;;;38.00;;
47912;SDS011;33676;51.006;17.180;2024-03-06T07:23:29;54.30;;;39.30;;
47912;SDS011;33676;51.006;17.180;2024-03-06T07:25:58;57.20;;;40.20;;
47912;SDS011;33676;51.006;17.180;2024-03-06T07:28:27;49.20;;;37.10;;
47912;SDS011;33676;51.006;17.180;2024-03-06T07:30:56;54.70;;;39.40;;
47912;SDS011;33676;51.006;17.180;2024-03-06T07:33:25;51.70;;;39.30;;
47912;SDS011;33676;51.006;17.180;2024-03-06T07:35:53;47.80;;;37.20;;
47912;SDS011;33676;51.006;17.180;2024-03-06T07:38:23;55.10;;;39.70;;
47912;SDS011;33676;51.006;17.180;2024-03-06T07:40:51;51.10;;;36.80;;
47912;SDS011;33676;51.006;17.180;2024-03-06T07:43:20;51.90;;;37.40;;
47912;SDS011;33676;51.006;17.180;2024-03-06T07:45:48;49.70;;;37.60;;
47912;SDS011;33676;51.006;17.180;2024-03-06T07:48:17;48.60;;;37.50;;
47912;SDS011;33676;51.006;17.180;2024-03-06T07:50:47;45.20;;;36.90;;
47912;SDS011;33676;51.006;17.180;2024-03-06T07:53:17;49.50;;;38.10;;
47912;SDS011;33676;51.006;17.180;2024-03-06T07:55:45;54.00;;;38.90;;
47912;SDS011;33676;51.006;17.180;2024-03-06T07:58:12;50.80;;;36.40;;
47912;SDS011;33676;51.006;17.180;2024-03-06T08:00:40;47.80;;;34.80;;
47912;SDS011;33676;51.006;17.180;2024-03-06T08:03:08;46.20;;;35.60;;
47912;SDS011;33676;51.006;17.180;2024-03-06T08:05:35;47.30;;;37.00;;
47912;SDS011;33676;51.006;17.180;2024-03-06T08:08:03;44.60;;;35.50;;
47912;SDS011;33676;51.006;17.180;2024-03-06T08:10:32;50.00;;;36.10;;
47912;SDS011;33676;51.006;17.180;2024-03-06T08:13:01;46.20;;;36.20;;
47912;SDS011;33676;51.006;17.180;2024-03-06T08:15:28;46.70;;;35.30;;
47912;SDS011;33676;51.006;17.180;2024-03-06T08:17:56;48.60;;;36.00;;
47912;SDS011;33676;51.006;17.180;2024-03-06T08:20:24;46.60;;;36.60;;
47912;SDS011;33676;51.006;17.180;2024-03-06T08:22:52;45.30;;;33.80;;
47912;SDS011;33676;51.006;17.180;2024-03-06T08:25:19;43.00;;;33.10;;
47912;SDS011;33676;51.006;17.180;2024-03-06T08:27:47;44.60;;;32.10;;
47912;SDS011;33676;51.006;17.180;2024-03-06T08:30:16;41.00;;;31.40;;
47912;SDS011;33676;51.006;17.180;2024-03-06T08:32:44;48.90;;;34.60;;
47912;SDS011;33676;51.006;17.180;2024-03-06T08:35:12;44.60;;;32.90;;
47912;SDS011;33676;51.006;17.180;2024-03-06T08:37:45;42.00;;;31.20;;
47912;SDS011;33676;51.006;17.180;2024-03-06T08:40:13;41.90;;;31.80;;
47912;SDS011;33676;51.006;17.180;2024-03-06T08:42:46;43.20;;;33.80;;
47912;SDS011;33676;51.006;17.180;2024-03-06T08:45:17;39.10;;;32.30;;
47912;SDS011;33676;51.006;17.180;2024-03-06T08:47:47;35.20;;;29.10;;
47912;SDS011;33676;51.006;17.180;2024-03-06T08:50:16;40.20;;;30.50;;
47912;SDS011;33676;51.006;17.180;2024-03-06T08:52:45;39.70;;;31.10;;
47912;SDS011;33676;51.006;17.180;2024-03-06T08:55:13;37.50;;;29.70;;
47912;SDS011;33676;51.006;17.180;2024-03-06T08:57:41;40.00;;;29.80;;
47912;SDS011;33676;51.006;17.180;2024-03-06T09:00:10;37.10;;;29.40;;
47912;SDS011;33676;51.006;17.180;2024-03-06T09:12:13;31.00;;;25.40;;
47912;SDS011;33676;51.006;17.180;2024-03-06T09:14:41;29.90;;;24.90;;
47912;SDS011;33676;51.006;17.180;2024-03-06T09:17:10;31.30;;;24.00;;
47912;SDS011;33676;51.006;17.180;2024-03-06T09:19:42;27.70;;;22.10;;
47912;SDS011;33676;51.006;17.180;2024-03-06T09:22:30;24.20;;;21.60;;
47912;SDS011;33676;51.006;17.180;2024-03-06T09:24:57;24.20;;;20.80;;
47912;SDS011;33676;51.006;17.180;2024-03-06T09:27:25;28.80;;;21.10;;
47912;SDS011;33676;51.006;17.180;2024-03-06T09:29:54;26.50;;;22.00;;
47912;SDS011;33676;51.006;17.180;2024-03-06T09:32:23;18.60;;;16.70;;
47912;SDS011;33676;51.006;17.180;2024-03-06T09:34:54;19.80;;;16.30;;
47912;SDS011;33676;51.006;17.180;2024-03-06T09:37:21;19.30;;;16.20;;
47912;SDS011;33676;51.006;17.180;2024-03-06T09:39:49;24.20;;;19.50;;
47912;SDS011;33676;51.006;17.180;2024-03-06T09:42:17;19.20;;;17.30;;
47912;SDS011;33676;51.006;17.180;2024-03-06T09:44:45;19.50;;;16.20;;
47912;SDS011;33676;51.006;17.180;2024-03-06T09:47:14;21.50;;;16.70;;
47912;SDS011;33676;51.006;17.180;2024-03-06T09:49:42;19.60;;;17.00;;
47912;SDS011;33676;51.006;17.180;2024-03-06T09:52:10;17.30;;;14.60;;
47912;SDS011;33676;51.006;17.180;2024-03-06T09:54:38;15.60;;;13.90;;
47912;SDS011;33676;51.006;17.180;2024-03-06T09:57:07;14.20;;;12.80;;
47912;SDS011;33676;51.006;17.180;2024-03-06T09:59:34;13.50;;;12.10;;
47912;SDS011;33676;51.006;17.180;2024-03-06T10:02:02;16.90;;;13.30;;
47912;SDS011;33676;51.006;17.180;2024-03-06T10:04:46;15.10;;;12.90;;
47912;SDS011;33676;51.006;17.180;2024-03-06T10:07:14;14.00;;;12.60;;
47912;SDS011;33676;51.006;17.180;2024-03-06T10:09:42;18.50;;;15.50;;
47912;SDS011;33676;51.006;17.180;2024-03-06T10:12:12;15.80;;;13.60;;
47912;SDS011;33676;51.006;17.180;2024-03-06T10:14:52;13.80;;;12.50;;
47912;SDS011;33676;51.006;17.180;2024-03-06T10:17:20;15.10;;;13.60;;
47912;SDS011;33676;51.006;17.180;2024-03-06T10:19:55;12.50;;;11.20;;
47912;SDS011;33676;51.006;17.180;2024-03-06T10:22:26;12.00;;;10.80;;
47912;SDS011;33676;51.006;17.180;2024-03-06T10:24:56;13.20;;;11.80;;
47912;SDS011;33676;51.006;17.180;2024-03-06T10:27:24;16.70;;;14.50;;
47912;SDS011;33676;51.006;17.180;2024-03-06T10:30:04;14.50;;;13.10;;
47912;SDS011;33676;51.006;17.180;2024-03-06T10:32:33;16.40;;;14.50;;
47912;SDS011;33676;51.006;17.180;2024-03-06T10:35:01;14.70;;;13.30;;
47912;SDS011;33676;51.006;17.180;2024-03-06T10:37:29;15.80;;;14.10;;
47912;SDS011;33676;51.006;17.180;2024-03-06T10:39:57;16.30;;;14.10;;
47912;SDS011;33676;51.006;17.180;2024-03-06T10:42:33;13.90;;;12.40;;
47912;SDS011;33676;51.006;17.180;2024-03-06T10:45:03;14.20;;;12.90;;
47912;SDS011;33676;51.006;17.180;2024-03-06T10:47:33;14.80;;;13.00;;
47912;SDS011;33676;51.006;17.180;2024-03-06T10:50:01;13.40;;;12.20;;
47912;SDS011;33676;51.006;17.180;2024-03-06T10:52:32;14.00;;;12.40;;
47912;SDS011;33676;51.006;17.180;2024-03-06T10:55:00;15.10;;;13.60;;
47912;SDS011;33676;51.006;17.180;2024-03-06T10:57:29;15.10;;;13.60;;
47912;SDS011;33676;51.006;17.180;2024-03-06T10:59:57;13.70;;;12.30;;
47912;SDS011;33676;51.006;17.180;2024-03-06T11:02:31;14.60;;;13.30;;
47912;SDS011;33676;51.006;17.180;2024-03-06T11:04:59;15.80;;;13.30;;
47912;SDS011;33676;51.006;17.180;2024-03-06T11:07:28;15.40;;;13.90;;
47912;SDS011;33676;51.006;17.180;2024-03-06T11:09:58;16.50;;;14.80;;
47912;SDS011;33676;51.006;17.180;2024-03-06T11:12:37;16.30;;;14.60;;
47912;SDS011;33676;51.006;17.180;2024-03-06T11:15:15;18.70;;;16.70;;
47912;SDS011;33676;51.006;17.180;2024-03-06T11:17:46;18.90;;;16.70;;
47912;SDS011;33676;51.006;17.180;2024-03-06T11:20:17;18.30;;;16.40;;
47912;SDS011;33676;51.006;17.180;2024-03-06T11:28:26;17.90;;;16.00;;
47912;SDS011;33676;51.006;17.180;2024-03-06T11:30:58;19.20;;;17.10;;
47912;SDS011;33676;51.006;17.180;2024-03-06T11:36:22;17.20;;;15.30;;
47912;SDS011;33676;51.006;17.180;2024-03-06T11:41:28;19.10;;;17.20;;
47912;SDS011;33676;51.006;17.180;2024-03-06T11:44:00;19.20;;;17.10;;
47912;SDS011;33676;51.006;17.180;2024-03-06T11:49:25;24.00;;;21.00;;
47912;SDS011;33676;51.006;17.180;2024-03-06T11:51:57;20.40;;;18.40;;
47912;SDS011;33676;51.006;17.180;2024-03-06T11:54:29;23.10;;;20.20;;
47912;SDS011;33676;51.006;17.180;2024-03-06T11:56:59;20.80;;;18.60;;
47912;SDS011;33676;51.006;17.180;2024-03-06T11:59:30;18.50;;;16.60;;
47912;SDS011;33676;51.006;17.180;2024-03-06T12:02:04;17.30;;;15.60;;
47912;SDS011;33676;51.006;17.180;2024-03-06T12:04:34;20.10;;;17.80;;
47912;SDS011;33676;51.006;17.180;2024-03-06T12:07:06;21.10;;;16.30;;
47912;SDS011;33676;51.006;17.180;2024-03-06T12:09:37;17.90;;;16.10;;
47912;SDS011;33676;51.006;17.180;2024-03-06T12:12:10;17.20;;;15.30;;
47912;SDS011;33676;51.006;17.180;2024-03-06T12:14:39;17.70;;;15.90;;
47912;SDS011;33676;51.006;17.180;2024-03-06T12:17:12;14.90;;;13.40;;
47912;SDS011;33676;51.006;17.180;2024-03-06T12:19:45;17.60;;;15.10;;
47912;SDS011;33676;51.006;17.180;2024-03-06T12:22:13;18.00;;;16.10;;
47912;SDS011;33676;51.006;17.180;2024-03-06T12:24:43;18.40;;;16.00;;
47912;SDS011;33676;51.006;17.180;2024-03-06T12:27:11;18.30;;;16.30;;
47912;SDS011;33676;51.006;17.180;2024-03-06T12:29:40;17.30;;;14.60;;
47912;SDS011;33676;51.006;17.180;2024-03-06T12:32:17;18.10;;;16.30;;
47912;SDS011;33676;51.006;17.180;2024-03-06T12:34:57;19.10;;;17.30;;
47912;SDS011;33676;51.006;17.180;2024-03-06T12:37:33;21.10;;;18.90;;
47912;SDS011;33676;51.006;17.180;2024-03-06T12:40:03;20.50;;;17.90;;
47912;SDS011;33676;51.006;17.180;2024-03-06T12:42:40;21.30;;;18.90;;
47912;SDS011;33676;51.006;17.180;2024-03-06T12:45:08;20.40;;;18.30;;
47912;SDS011;33676;51.006;17.180;2024-03-06T12:47:37;20.30;;;17.50;;
47912;SDS011;33676;51.006;17.180;2024-03-06T12:50:05;20.80;;;18.30;;
47912;SDS011;33676;51.006;17.180;2024-03-06T12:52:35;23.80;;;20.00;;
47912;SDS011;33676;51.006;17.180;2024-03-06T12:55:03;22.30;;;19.30;;
47912;SDS011;33676;51.006;17.180;2024-03-06T12:57:34;20.50;;;18.40;;
47912;SDS011;33676;51.006;17.180;2024-03-06T13:00:02;21.40;;;19.10;;
47912;SDS011;33676;51.006;17.180;2024-03-06T13:02:30;22.20;;;20.00;;
47912;SDS011;33676;51.006;17.180;2024-03-06T13:04:58;24.20;;;19.20;;
47912;SDS011;33676;51.006;17.180;2024-03-06T13:07:25;23.50;;;20.70;;
47912;SDS011;33676;51.006;17.180;2024-03-06T13:09:54;22.70;;;18.90;;
47912;SDS011;33676;51.006;17.180;2024-03-06T13:12:22;19.80;;;17.70;;
47912;SDS011;33676;51.006;17.180;2024-03-06T13:14:49;21.90;;;19.50;;
47912;SDS011;33676;51.006;17.180;2024-03-06T13:17:17;20.00;;;18.00;;
47912;SDS011;33676;51.006;17.180;2024-03-06T13:19:45;20.30;;;17.70;;
47912;SDS011;33676;51.006;17.180;2024-03-06T13:22:14;21.30;;;18.70;;
47912;SDS011;33676;51.006;17.180;2024-03-06T13:24:42;21.10;;;18.90;;
47912;SDS011;33676;51.006;17.180;2024-03-06T13:27:12;23.20;;;19.20;;
47912;SDS011;33676;51.006;17.180;2024-03-06T13:29:40;20.40;;;18.30;;
47912;SDS011;33676;51.006;17.180;2024-03-06T13:32:08;22.10;;;19.60;;
47912;SDS011;33676;51.006;17.180;2024-03-06T13:34:35;22.70;;;20.20;;
47912;SDS011;33676;51.006;17.180;2024-03-06T13:37:03;25.00;;;19.40;;
47912;SDS011;33676;51.006;17.180;2024-03-06T13:39:33;23.20;;;18.30;;
47912;SDS011;33676;51.006;17.180;2024-03-06T13:42:01;20.00;;;17.30;;
47912;SDS011;33676;51.006;17.180;2024-03-06T13:44:28;22.30;;;19.10;;
47912;SDS011;33676;51.006;17.180;2024-03-06T13:46:56;20.30;;;17.90;;
47912;SDS011;33676;51.006;17.180;2024-03-06T13:49:38;24.20;;;18.50;;
47912;SDS011;33676;51.006;17.180;2024-03-06T13:52:08;22.00;;;18.80;;
47912;SDS011;33676;51.006;17.180;2024-03-06T13:54:41;23.90;;;20.10;;
47912;SDS011;33676;51.006;17.180;2024-03-06T13:57:09;23.60;;;20.10;;
47912;SDS011;33676;51.006;17.180;2024-03-06T13:59:38;23.30;;;20.80;;
47912;SDS011;33676;51.006;17.180;2024-03-06T14:02:06;27.80;;;21.40;;
47912;SDS011;33676;51.006;17.180;2024-03-06T14:04:34;25.80;;;22.00;;
47912;SDS011;33676;51.006;17.180;2024-03-06T14:07:02;22.30;;;19.60;;
47912;SDS011;33676;51.006;17.180;2024-03-06T14:09:30;22.20;;;17.40;;
47912;SDS011;33676;51.006;17.180;2024-03-06T14:11:58;23.30;;;18.10;;
47912;SDS011;33676;51.006;17.180;2024-03-06T14:14:26;25.90;;;18.50;;
47912;SDS011;33676;51.006;17.180;2024-03-06T14:16:54;20.90;;;17.60;;
47912;SDS011;33676;51.006;17.180;2024-03-06T14:19:22;24.90;;;19.80;;
47912;SDS011;33676;51.006;17.180;2024-03-06T14:21:50;24.50;;;20.00;;
47912;SDS011;33676;51.006;17.180;2024-03-06T14:24:19;27.90;;;21.00;;
47912;SDS011;33676;51.006;17.180;2024-03-06T14:26:48;36.60;;;21.90;;
47912;SDS011;33676;51.006;17.180;2024-03-06T14:29:16;30.00;;;23.40;;
47912;SDS011;33676;51.006;17.180;2024-03-06T14:31:44;29.90;;;22.70;;
47912;SDS011;33676;51.006;17.180;2024-03-06T14:34:11;28.60;;;22.00;;
47912;SDS011;33676;51.006;17.180;2024-03-06T14:36:39;28.10;;;23.10;;
47912;SDS011;33676;51.006;17.180;2024-03-06T14:39:09;26.40;;;23.30;;
47912;SDS011;33676;51.006;17.180;2024-03-06T14:41:38;32.60;;;27.20;;
47912;SDS011;33676;51.006;17.180;2024-03-06T14:44:05;31.00;;;24.40;;
47912;SDS011;33676;51.006;17.180;2024-03-06T14:46:34;33.20;;;26.90;;
47912;SDS011;33676;51.006;17.180;2024-03-06T14:49:01;28.80;;;23.90;;
47912;SDS011;33676;51.006;17.180;2024-03-06T14:51:30;30.10;;;24.20;;
47912;SDS011;33676;51.006;17.180;2024-03-06T14:53:58;29.70;;;25.10;;
47912;SDS011;33676;51.006;17.180;2024-03-06T14:56:26;34.90;;;27.90;;
47912;SDS011;33676;51.006;17.180;2024-03-06T14:58:54;35.10;;;28.40;;
47912;SDS011;33676;51.006;17.180;2024-03-06T15:01:22;42.90;;;33.00;;